Time;durP1;ratioP1;P1;durP2;ratioP2;P2;SDS_P1;SDS_P2;PMS_P1;PMS_P2;Temp;Humidity;BMP_temperature;BMP_pressure;BME280_temperature;BME280_humidity;BME280_pressure;Samples;Min_cycle;Max_cycle;Signal;HPM_P1;HPM_P2
2022/01/13 00:01:33;;;;;;;104.57;27.52;;;;;;;1.31;100.00;104000.97;5248162;28;20471;-69
2022/01/13 00:04:05;;;;;;;;;;;;;;;1.39;100.00;104006.34;5248031;28;20085;-69
2022/01/13 00:06:37;;;;;;;99.65;27.17;;;;;;;1.33;100.00;103999.25;5248984;28;19921;-69
2022/01/13 00:09:09;;;;;;;96.38;27.42;;;;;;;1.33;100.00;104003.63;5242836;28;20056;-69
2022/01/13 00:11:41;;;;;;;154.02;31.02;;;;;;;1.26;100.00;104014.94;5250213;28;20037;-69
2022/01/13 00:22:17;;;;;;;109.80;26.70;;;;;;;1.18;100.00;104009.56;5244933;28;20043;-69
2022/01/13 00:24:53;;;;;;;142.32;29.95;;;;;;;1.15;100.00;104012.13;5247296;28;20082;-69
2022/01/13 00:27:28;;;;;;;110.85;29.98;;;;;;;1.17;100.00;104020.97;5255501;28;20033;-69
2022/01/13 00:30:01;;;;;;;93.80;27.00;;;;;;;1.25;100.00;104016.69;5243753;28;20043;-69
2022/01/13 00:32:34;;;;;;;116.93;28.65;;;;;;;1.17;100.00;104024.47;5244270;28;20032;-69
2022/01/13 00:35:05;;;;;;;107.40;30.45;;;;;;;1.27;100.00;104012.34;5246989;28;20152;-69
2022/01/13 00:37:37;;;;;;;110.68;30.92;;;;;;;1.26;100.00;104015.81;5244174;28;20394;-69
2022/01/13 00:40:10;;;;;;;120.28;29.08;;;;;;;1.21;100.00;104019.25;5247718;28;20037;-69
2022/01/13 00:42:42;;;;;;;123.90;31.00;;;;;;;1.21;100.00;104016.59;5247957;28;20017;-69
2022/01/13 00:45:14;;;;;;;98.65;27.48;;;;;;;1.18;100.00;104013.06;5248694;28;20126;-69
2022/01/13 00:47:46;;;;;;;87.88;26.80;;;;;;;1.23;100.00;104007.91;5247587;28;20079;-69
2022/01/13 00:50:18;;;;;;;104.55;26.90;;;;;;;1.23;100.00;104001.72;5253163;28;20020;-69
2022/01/13 00:52:49;;;;;;;95.55;27.17;;;;;;;1.18;100.00;103999.91;5241654;28;20059;-69
2022/01/13 00:55:22;;;;;;;111.35;28.05;;;;;;;1.11;100.00;104002.44;5250737;28;20043;-69
2022/01/13 00:57:54;;;;;;;121.20;29.27;;;;;;;1.10;100.00;104011.22;5252774;28;20048;-69
2022/01/13 01:00:25;;;;;;;91.07;26.75;;;;;;;1.11;100.00;104012.97;5250260;28;20033;-69
2022/01/13 01:02:56;;;;;;;88.80;25.95;;;;;;;1.08;100.00;104002.44;5253205;28;20033;-69
2022/01/13 01:05:28;;;;;;;102.38;26.15;;;;;;;1.03;100.00;103998.84;5252310;28;20634;-69
2022/01/13 01:07:59;;;;;;;77.57;24.80;;;;;;;1.10;100.00;103993.69;5250106;28;20750;-69
2022/01/13 01:10:31;;;;;;;94.68;26.52;;;;;;;1.05;100.00;103999.75;5249081;28;20045;-69
2022/01/13 01:13:14;;;;;;;74.90;23.98;;;;;;;1.02;100.00;103999.69;5248722;28;20086;-69
2022/01/13 01:15:51;;;;;;;70.97;24.00;;;;;;;1.06;100.00;104004.16;5247421;28;20131;-69
2022/01/13 01:18:34;;;;;;;73.72;24.67;;;;;;;1.10;100.00;104003.31;5245146;28;20029;-69
2022/01/13 01:26:31;;;;;;;77.38;24.02;;;;;;;1.23;100.00;103997.38;5241542;28;20442;-68
2022/01/13 01:29:26;;;;;;;62.47;22.50;;;;;;;1.22;100.00;104007.88;5253521;28;20036;-68
2022/01/13 01:31:58;;;;;;;75.60;23.83;;;;;;;1.13;100.00;104004.25;5250172;28;20104;-68
2022/01/13 01:37:20;;;;;;;59.20;21.83;;;;;;;1.07;100.00;104004.16;5250610;28;20499;-69
2022/01/13 01:39:52;;;;;;;65.40;21.83;;;;;;;1.03;100.00;104011.97;5243769;28;20076;-69
2022/01/13 01:42:25;;;;;;;64.55;22.05;;;;;;;0.95;100.00;104002.22;5248528;28;20060;-69
2022/01/13 01:44:58;;;;;;;48.53;21.08;;;;;;;1.00;100.00;104007.56;5245392;28;20048;-69
2022/01/13 01:47:31;;;;;;;72.18;21.52;;;;;;;0.87;100.00;104009.13;5245566;28;20025;-69
2022/01/13 01:50:11;;;;;;;71.57;20.80;;;;;;;0.85;100.00;103992.44;5248185;28;20044;-69
2022/01/13 01:52:42;;;;;;;67.50;21.02;;;;;;;0.88;100.00;103994.22;5248768;28;20033;-69
2022/01/13 01:55:14;;;;;;;60.38;19.63;;;;;;;0.95;100.00;103986.44;5246264;28;20514;-69
2022/01/13 01:57:49;;;;;;;71.35;20.35;;;;;;;0.88;100.00;103988.97;5241574;28;20029;-69
2022/01/13 02:00:22;;;;;;;49.47;19.08;;;;;;;1.01;100.00;103979.53;5241805;28;20106;-69
2022/01/13 02:02:55;;;;;;;58.42;19.17;;;;;;;1.08;100.00;103986.66;5241792;28;20391;-69
2022/01/13 02:05:26;;;;;;;82.00;20.75;;;;;;;0.98;100.00;103991.78;5240563;28;20616;-69
2022/01/13 02:07:58;;;;;;;89.72;20.38;;;;;;;0.92;100.00;103977.63;5242451;28;20029;-69
2022/01/13 02:10:29;;;;;;;144.75;21.38;;;;;;;0.88;100.00;103981.09;5251694;28;20069;-69
2022/01/13 02:13:08;;;;;;;55.53;18.48;;;;;;;0.99;100.00;103982.13;5238433;28;20028;-69
2022/01/13 02:16:00;;;;;;;68.63;20.02;;;;;;;0.92;100.00;103988.16;5242743;28;20052;-69
2022/01/13 02:18:33;;;;;;;58.95;19.13;;;;;;;0.96;100.00;103988.22;5248956;28;20056;-69
2022/01/13 02:21:05;;;;;;;74.85;18.92;;;;;;;0.84;100.00;103990.66;5241672;28;20025;-69
2022/01/13 02:23:38;;;;;;;66.57;19.35;;;;;;;0.85;100.00;103991.56;5242553;28;20031;-69
2022/01/13 02:26:10;;;;;;;67.18;20.00;;;;;;;0.87;100.00;104003.00;5238914;28;20479;-69
2022/01/13 02:28:43;;;;;;;67.82;17.83;;;;;;;0.78;100.00;104008.97;5241651;28;20036;-69
2022/01/13 02:31:14;;;;;;;60.95;18.40;;;;;;;0.78;100.00;104012.47;5243033;28;20036;-68
2022/01/13 02:33:45;;;;;;;77.00;19.67;;;;;;;0.81;100.00;104011.66;5245211;28;20017;-68
2022/01/13 02:36:18;;;;;;;63.92;18.98;;;;;;;0.86;100.00;104002.09;5241745;28;20435;-69
2022/01/13 02:38:54;;;;;;;84.65;20.58;;;;;;;0.83;100.00;103996.81;5239232;28;20479;-69
2022/01/13 02:41:26;;;;;;;78.25;20.02;;;;;;;0.82;100.00;103987.13;5244931;28;20104;-69
2022/01/13 02:43:59;;;;;;;65.88;20.77;;;;;;;0.85;100.00;103987.19;5242857;28;20020;-69
2022/01/13 02:49:13;;;;;;;61.05;20.33;;;;;;;0.99;100.00;103992.66;5246673;28;20037;-69
2022/01/13 02:51:47;;;;;;;76.82;20.08;;;;;;;1.02;100.00;103989.16;5239611;28;20021;-69
2022/01/13 02:54:19;;;;;;;53.17;19.20;;;;;;;1.09;100.00;103991.03;5244745;28;20058;-69
2022/01/13 02:56:50;;;;;;;57.78;18.88;;;;;;;1.11;100.00;103991.94;5249694;28;20036;-69
2022/01/13 02:59:21;;;;;;;49.05;17.92;;;;;;;1.11;100.00;103987.56;5248119;28;20072;-69
2022/01/13 03:01:53;;;;;;;73.97;20.05;;;;;;;0.98;100.00;103991.78;5245686;28;20497;-69
2022/01/13 03:04:24;;;;;;;77.07;21.25;;;;;;;1.01;100.00;103995.31;5244848;28;20037;-69
2022/01/13 03:06:56;;;;;;;73.28;20.38;;;;;;;0.98;100.00;103996.16;5242530;28;20056;-68
2022/01/13 03:09:27;;;;;;;78.78;20.67;;;;;;;1.00;100.00;103996.16;5250008;28;20502;-68
2022/01/13 03:11:58;;;;;;;73.40;21.55;;;;;;;1.01;100.00;103990.91;5239564;28;20138;-68
2022/01/13 03:14:29;;;;;;;55.25;19.95;;;;;;;1.09;100.00;103984.00;5241079;28;20068;-68
2022/01/13 03:17:01;;;;;;;56.25;19.85;;;;;;;1.09;100.00;103970.88;5243828;28;20187;-68
2022/01/13 03:19:32;;;;;;;91.57;22.13;;;;;;;1.01;100.00;103975.13;5246710;28;20068;-68
2022/01/13 03:22:03;;;;;;;71.40;22.38;;;;;;;0.99;100.00;103968.97;5244872;28;20024;-68
2022/01/13 03:24:34;;;;;;;84.03;21.73;;;;;;;0.98;100.00;103977.75;5241409;28;20039;-68
2022/01/13 03:27:07;;;;;;;108.38;23.00;;;;;;;1.04;100.00;103971.69;5239688;28;20036;-68
2022/01/13 03:29:38;;;;;;;62.33;21.88;;;;;;;1.05;100.00;103971.69;5240227;28;20039;-68
2022/01/13 03:32:10;;;;;;;88.45;22.38;;;;;;;1.05;100.00;103976.06;5240953;28;20064;-68
2022/01/13 03:34:41;;;;;;;111.20;25.63;;;;;;;0.98;100.00;103972.50;5249887;28;20036;-68
2022/01/13 03:37:12;;;;;;;110.03;25.35;;;;;;;0.89;100.00;103975.84;5249484;28;20298;-68
2022/01/13 03:39:44;;;;;;;92.78;25.27;;;;;;;0.81;100.00;103976.63;5247702;28;20033;-68
2022/01/13 03:42:15;;;;;;;82.35;24.55;;;;;;;0.82;100.00;103974.00;5250325;28;20028;-68
2022/01/13 03:44:46;;;;;;;109.13;27.13;;;;;;;0.84;100.00;103969.63;5243103;28;20033;-68
2022/01/13 03:47:18;;;;;;;100.20;26.83;;;;;;;0.81;100.00;103966.97;5244486;28;20391;-68
2022/01/13 03:49:50;;;;;;;113.63;27.42;;;;;;;0.80;100.00;103969.59;5243654;28;20124;-68
2022/01/13 03:52:21;;;;;;;71.72;23.67;;;;;;;0.90;100.00;103972.38;5245154;28;20388;-68
2022/01/13 03:55:30;;;;;;;123.05;28.75;;;;;;;0.84;100.00;103967.00;5251511;28;20029;-68
2022/01/13 03:58:42;;;;;;;104.88;28.02;;;;;;;0.88;100.00;103971.47;5249175;28;20044;-68
2022/01/13 04:02:19;;;;;;;97.53;26.98;;;;;;;0.92;100.00;103973.28;5249422;28;20025;-68
2022/01/13 04:04:50;;;;;;;101.47;27.25;;;;;;;0.95;100.00;103961.91;5255896;28;20425;-68
2022/01/13 04:07:25;;;;;;;118.13;29.35;;;;;;;0.90;100.00;103972.38;5249707;28;20395;-68
2022/01/13 04:09:56;;;;;;;106.47;27.55;;;;;;;0.90;100.00;103956.59;5252088;28;20072;-68
2022/01/13 04:12:28;;;;;;;102.70;27.88;;;;;;;0.93;100.00;103961.88;5250798;28;20590;-69
2022/01/13 04:15:01;;;;;;;83.88;25.90;;;;;;;1.05;100.00;103962.94;5249195;28;20028;-69
2022/01/13 04:17:32;;;;;;;92.43;27.23;;;;;;;1.09;100.00;103960.34;5249570;28;20494;-69
2022/01/13 04:20:04;;;;;;;90.55;28.42;;;;;;;1.14;100.00;103949.91;5249405;28;20040;-69
2022/01/13 04:22:35;;;;;;;92.88;27.25;;;;;;;1.06;100.00;103955.06;5249003;28;20044;-69
2022/01/13 04:25:07;;;;;;;86.25;26.23;;;;;;;1.08;100.00;103966.47;5251420;28;20406;-69
2022/01/13 04:27:43;;;;;;;111.07;28.38;;;;;;;1.08;100.00;103968.25;5252608;28;20271;-69
2022/01/13 04:32:46;;;;;;;94.78;25.90;;;;;;;0.97;100.00;103965.44;5251066;28;20033;-69
2022/01/13 04:35:17;;;;;;;109.28;27.23;;;;;;;0.94;100.00;103960.13;5249124;28;20037;-69
2022/01/13 04:37:48;;;;;;;86.82;26.15;;;;;;;1.07;100.00;103955.94;5244574;28;20538;-69
2022/01/13 04:40:20;;;;;;;118.72;29.15;;;;;;;1.00;100.00;103949.72;5252033;28;20033;-69
2022/01/13 04:42:55;;;;;;;84.95;26.60;;;;;;;1.11;100.00;103952.47;5251440;28;20057;-69
2022/01/13 04:45:27;;;;;;;90.40;25.90;;;;;;;1.07;100.00;103948.06;5241608;28;20036;-69
2022/01/13 04:47:58;;;;;;;128.20;30.67;;;;;;;1.12;100.00;103946.38;5244367;28;20410;-68
2022/01/13 04:50:29;;;;;;;94.07;26.60;;;;;;;1.11;100.00;103950.75;5248979;28;20523;-68
2022/01/13 04:53:00;;;;;;;141.45;31.90;;;;;;;1.10;100.00;103950.72;5247292;28;20033;-68
2022/01/13 04:55:34;;;;;;;115.28;30.13;;;;;;;1.14;100.00;103945.53;5243422;28;20193;-68
2022/01/13 04:58:06;;;;;;;109.18;28.63;;;;;;;1.17;100.00;103945.56;5241401;28;20490;-68
2022/01/13 05:00:37;;;;;;;145.50;31.00;;;;;;;1.06;100.00;103941.03;5243081;28;20060;-68
2022/01/13 05:03:09;;;;;;;113.28;29.02;;;;;;;1.12;100.00;103949.00;5244403;28;20498;-68
2022/01/13 05:05:40;;;;;;;114.03;26.75;;;;;;;1.10;100.00;103943.72;5240844;28;20037;-68
2022/01/13 05:08:11;;;;;;;112.43;28.48;;;;;;;1.04;100.00;103945.41;5243823;28;20036;-68
2022/01/13 05:10:43;;;;;;;104.03;29.08;;;;;;;1.06;100.00;103948.94;5244065;28;20025;-68
2022/01/13 05:13:14;;;;;;;129.65;30.13;;;;;;;1.03;100.00;103947.13;5242204;28;20032;-68
2022/01/13 05:15:46;;;;;;;115.60;30.35;;;;;;;1.03;100.00;103952.38;5246018;28;20293;-68
2022/01/13 05:18:25;;;;;;;137.32;31.15;;;;;;;1.02;100.00;103952.34;5244132;28;20032;-68
2022/01/13 05:21:05;;;;;;;89.25;26.38;;;;;;;1.09;100.00;103952.47;5248160;28;20052;-68
2022/01/13 05:23:36;;;;;;;95.65;27.05;;;;;;;1.07;100.00;103945.41;5246655;28;20031;-68
2022/01/13 05:26:07;;;;;;;110.22;28.00;;;;;;;1.07;100.00;103953.31;5243644;28;20024;-69
2022/01/13 05:28:40;;;;;;;108.07;28.55;;;;;;;1.06;100.00;103954.19;5242698;28;20191;-69
2022/01/13 05:31:12;;;;;;;94.63;27.65;;;;;;;1.09;100.00;103956.84;5246173;28;20410;-69
2022/01/13 05:33:43;;;;;;;176.13;32.55;;;;;;;0.91;100.00;103947.84;5242545;28;20540;-69
2022/01/13 05:36:14;;;;;;;138.88;31.00;;;;;;;0.91;100.00;103952.22;5240608;28;20040;-69
2022/01/13 05:38:46;;;;;;;92.50;27.20;;;;;;;1.03;100.00;103947.13;5243299;28;21530;-68
2022/01/13 05:41:17;;;;;;;101.60;27.35;;;;;;;1.03;100.00;103951.50;5242026;28;20789;-69
2022/01/13 05:43:48;;;;;;;101.30;28.63;;;;;;;1.00;100.00;103954.09;5246324;28;20167;-69
2022/01/13 05:46:19;;;;;;;111.88;28.35;;;;;;;0.96;100.00;103955.81;5253388;28;20044;-69
2022/01/13 05:48:51;;;;;;;139.07;32.50;;;;;;;0.97;100.00;103955.81;5247360;28;20075;-69
2022/01/13 05:51:25;;;;;;;120.38;30.17;;;;;;;0.94;100.00;103953.16;5247296;28;20072;-69
2022/01/13 05:53:56;;;;;;;128.27;33.67;;;;;;;0.94;100.00;103949.63;5244474;28;20487;-69
2022/01/13 05:56:27;;;;;;;118.45;29.48;;;;;;;0.98;100.00;103954.09;5247798;28;20055;-69
2022/01/13 05:58:59;;;;;;;114.15;30.38;;;;;;;1.00;100.00;103955.00;5244866;28;20036;-69
2022/01/13 06:01:30;;;;;;;152.57;34.65;;;;;;;0.91;100.00;103953.09;5246544;28;20860;-69
2022/01/13 06:04:01;;;;;;;110.55;29.30;;;;;;;1.03;100.00;103962.03;5245943;28;20083;-69
2022/01/13 06:06:33;;;;;;;143.73;34.17;;;;;;;0.97;100.00;103950.56;5244488;28;20037;-69
2022/01/13 06:09:04;;;;;;;131.15;33.13;;;;;;;0.97;100.00;103947.91;5247101;28;20044;-69
2022/01/13 06:11:40;;;;;;;161.77;34.75;;;;;;;0.97;100.00;103950.56;5243988;28;20033;-69
2022/01/13 06:14:12;;;;;;;141.70;33.95;;;;;;;0.97;100.00;103941.78;5249008;28;20036;-69
2022/01/13 06:16:43;;;;;;;186.75;36.08;;;;;;;0.97;100.00;103944.41;5244576;28;20489;-69
2022/01/13 06:19:15;;;;;;;150.07;33.00;;;;;;;1.02;100.00;103952.34;5255129;28;20132;-69
2022/01/13 06:21:46;;;;;;;141.05;33.97;;;;;;;1.07;100.00;103943.66;5257960;28;20051;-69
2022/01/13 06:24:18;;;;;;;170.80;35.92;;;;;;;1.05;100.00;103931.38;5240100;28;20120;-69
2022/01/13 06:26:49;;;;;;;189.23;36.95;;;;;;;1.09;100.00;103930.53;5250853;28;20119;-69
2022/01/13 06:29:20;;;;;;;164.27;35.88;;;;;;;1.07;100.00;103937.53;5242466;28;20033;-69
2022/01/13 06:31:52;;;;;;;103.65;28.83;;;;;;;1.13;100.00;103935.88;5247743;28;20033;-69
2022/01/13 06:34:23;;;;;;;209.73;35.80;;;;;;;0.99;100.00;103937.44;5249846;28;20024;-69
2022/01/13 06:36:54;;;;;;;194.68;35.47;;;;;;;0.99;100.00;103926.91;5248416;28;20067;-69
2022/01/13 06:39:26;;;;;;;192.82;32.72;;;;;;;0.98;100.00;103936.56;5245649;28;20047;-69
2022/01/13 06:41:57;;;;;;;174.13;32.65;;;;;;;0.89;100.00;103927.66;5257871;28;20031;-69
2022/01/13 06:44:28;;;;;;;105.50;27.95;;;;;;;0.96;100.00;103929.53;5250384;28;20037;-69
2022/01/13 06:47:00;;;;;;;210.75;34.10;;;;;;;0.91;100.00;103942.59;5247234;28;20565;-69
2022/01/13 06:49:31;;;;;;;142.02;29.73;;;;;;;0.96;100.00;103948.81;5246798;28;20037;-69
2022/01/13 06:52:03;;;;;;;115.40;26.90;;;;;;;1.02;100.00;103950.63;5253306;28;20148;-69
2022/01/13 06:54:34;;;;;;;154.63;29.60;;;;;;;1.04;100.00;103946.28;5249063;28;20032;-69
2022/01/13 06:57:06;;;;;;;200.02;33.08;;;;;;;0.96;100.00;103945.28;5252653;28;20033;-69
2022/01/13 06:59:37;;;;;;;118.85;27.50;;;;;;;1.01;100.00;103948.84;5247729;28;20119;-69
2022/01/13 07:02:08;;;;;;;136.88;29.85;;;;;;;1.01;100.00;103943.59;5245263;28;20044;-69
2022/01/13 07:04:40;;;;;;;153.00;29.30;;;;;;;1.04;100.00;103941.03;5243926;28;20025;-69
2022/01/13 07:07:11;;;;;;;267.00;36.85;;;;;;;0.95;100.00;103941.75;5253199;28;20064;-69
2022/01/13 07:09:43;;;;;;;157.60;30.92;;;;;;;1.00;100.00;103941.84;5252931;28;20056;-69
2022/01/13 07:12:14;;;;;;;227.45;34.35;;;;;;;0.98;100.00;103939.19;5248521;28;20284;-69
2022/01/13 07:14:45;;;;;;;149.32;30.17;;;;;;;1.06;100.00;103939.28;5246118;28;20039;-69
2022/01/13 07:17:16;;;;;;;190.80;32.40;;;;;;;1.05;100.00;103939.25;5250687;28;20105;-68
2022/01/13 07:19:48;;;;;;;118.65;29.33;;;;;;;1.10;100.00;103935.84;5242188;28;20033;-68
2022/01/13 07:22:19;;;;;;;139.05;28.13;;;;;;;1.07;100.00;103940.16;5241658;28;20040;-68
2022/01/13 07:24:51;;;;;;;211.85;36.10;;;;;;;1.01;100.00;103945.34;5240631;28;20044;-69
2022/01/13 07:27:22;;;;;;;140.60;30.70;;;;;;;1.04;100.00;103942.78;5239596;28;20057;-68
2022/01/13 07:29:53;;;;;;;133.30;29.52;;;;;;;1.09;100.00;103944.56;5239391;28;20165;-68
2022/01/13 07:32:25;;;;;;;135.75;30.15;;;;;;;1.13;100.00;103950.75;5236457;28;20032;-68
2022/01/13 07:34:56;;;;;;;166.77;32.00;;;;;;;1.13;100.00;103940.25;5237011;28;20084;-69
2022/01/13 07:37:27;;;;;;;148.10;32.97;;;;;;;1.10;100.00;103942.84;5237797;28;20037;-69
2022/01/13 07:39:58;;;;;;;137.52;30.48;;;;;;;1.13;100.00;103943.78;5236302;28;20065;-68
2022/01/13 07:42:30;;;;;;;189.75;33.55;;;;;;;1.12;100.00;103943.75;5232697;28;20546;-68
2022/01/13 07:45:01;;;;;;;146.40;30.23;;;;;;;1.18;100.00;103947.31;5226503;28;21642;-68
2022/01/13 07:47:33;;;;;;;103.72;26.02;;;;;;;1.18;100.00;103944.69;5234353;28;20647;-68
2022/01/13 07:50:05;;;;;;;154.10;29.75;;;;;;;1.15;100.00;103944.69;5241729;28;20890;-68
2022/01/13 07:52:37;;;;;;;161.55;30.25;;;;;;;1.13;100.00;103958.66;5240336;28;20463;-68
2022/01/13 07:55:09;;;;;;;98.80;25.38;;;;;;;1.20;100.00;103952.63;5241569;28;20040;-68
2022/01/13 07:57:40;;;;;;;178.90;29.92;;;;;;;1.14;100.00;103952.53;5241108;28;20036;-68
2022/01/13 08:00:14;;;;;;;75.32;23.92;;;;;;;1.26;100.00;103946.53;5240901;28;20411;-68
2022/01/13 08:02:45;;;;;;;100.63;25.15;;;;;;;1.26;100.00;103955.31;5245814;28;20032;-68
2022/01/13 08:05:16;;;;;;;121.05;28.42;;;;;;;1.26;100.00;103960.56;5247475;28;22000;-68
2022/01/13 08:07:48;;;;;;;90.50;24.75;;;;;;;1.31;100.00;103958.91;5248342;28;20055;-68
2022/01/13 08:10:19;;;;;;;111.45;27.15;;;;;;;1.29;100.00;103955.38;5242717;28;20053;-68
2022/01/13 08:12:50;;;;;;;91.45;24.55;;;;;;;1.35;100.00;103958.06;5245880;28;20150;-68
2022/01/13 08:15:22;;;;;;;114.35;26.17;;;;;;;1.37;100.00;103960.72;5247979;28;20151;-68
2022/01/13 08:20:44;;;;;;;91.70;26.17;;;;;;;1.38;100.00;103975.63;5250356;28;20041;-68
2022/01/13 08:23:16;;;;;;;174.20;31.63;;;;;;;1.25;100.00;103964.09;5247022;28;20459;-69
2022/01/13 08:25:47;;;;;;;90.05;25.17;;;;;;;1.37;100.00;103969.50;5250050;28;20028;-68
2022/01/13 08:28:18;;;;;;;217.02;33.45;;;;;;;1.32;100.00;103965.03;5244042;28;20168;-68
2022/01/13 08:30:50;;;;;;;173.10;30.52;;;;;;;1.30;100.00;103969.38;5246041;28;20033;-68
2022/01/13 08:33:22;;;;;;;98.30;25.33;;;;;;;1.37;100.00;103968.63;5242364;28;20041;-68
2022/01/13 08:35:54;;;;;;;101.55;26.35;;;;;;;1.41;100.00;103978.31;5243207;28;20809;-68
2022/01/13 08:38:25;;;;;;;113.90;25.88;;;;;;;1.43;100.00;103979.19;5246535;28;20116;-68
2022/01/13 08:40:59;;;;;;;113.20;27.38;;;;;;;1.46;100.00;103974.00;5250136;28;20028;-68
2022/01/13 08:43:31;;;;;;;144.60;28.35;;;;;;;1.51;100.00;103974.03;5249817;28;20028;-69
2022/01/13 08:46:04;;;;;;;118.05;28.30;;;;;;;1.51;100.00;103979.28;5249144;28;20510;-69
2022/01/13 08:48:35;;;;;;;117.50;27.77;;;;;;;1.60;100.00;103981.16;5253665;28;20032;-69
2022/01/13 08:51:06;;;;;;;134.57;29.10;;;;;;;1.60;100.00;103981.16;5255832;28;20387;-69
2022/01/13 08:53:38;;;;;;;164.13;29.83;;;;;;;1.55;100.00;103994.25;5254867;28;20040;-69
2022/01/13 08:56:10;;;;;;;141.65;28.40;;;;;;;1.60;100.00;103986.44;5250579;28;20037;-69
2022/01/13 08:58:42;;;;;;;138.50;28.55;;;;;;;1.60;100.00;103984.69;5247394;28;20098;-68
2022/01/13 09:01:14;;;;;;;83.95;24.55;;;;;;;1.66;100.00;103987.38;5255819;28;20491;-68
2022/01/13 09:03:45;;;;;;;160.13;29.42;;;;;;;1.62;100.00;103985.56;5253166;28;20070;-68
2022/01/13 09:06:17;;;;;;;85.97;26.52;;;;;;;1.68;100.00;103992.66;5255791;28;20112;-68
2022/01/13 09:08:48;;;;;;;132.77;28.95;;;;;;;1.71;100.00;103995.34;5252462;28;20601;-68
2022/01/13 09:11:19;;;;;;;107.13;26.42;;;;;;;1.74;100.00;103998.88;5246495;28;20138;-68
2022/01/13 09:13:57;;;;;;;101.13;25.85;;;;;;;1.79;100.00;104000.69;5250778;28;20092;-69
2022/01/13 09:16:33;;;;;;;98.82;25.35;;;;;;;1.81;100.00;103997.19;5253347;28;20024;-69
2022/01/13 09:19:11;;;;;;;98.68;25.30;;;;;;;1.85;100.00;103996.38;5251463;28;20131;-69
2022/01/13 09:21:44;;;;;;;115.15;26.27;;;;;;;1.86;100.00;104003.41;5252970;28;20667;-69
2022/01/13 09:24:18;;;;;;;158.25;28.67;;;;;;;1.81;100.00;104001.59;5250995;28;20033;-69
2022/01/13 09:26:49;;;;;;;117.53;24.23;;;;;;;1.86;100.00;104007.75;5255694;28;20033;-69
2022/01/13 09:29:21;;;;;;;92.95;23.33;;;;;;;1.87;100.00;104004.28;5249173;28;20094;-69
2022/01/13 09:31:52;;;;;;;85.53;23.88;;;;;;;1.91;100.00;104004.31;5253124;28;20029;-69
2022/01/13 09:34:24;;;;;;;105.68;25.25;;;;;;;1.86;100.00;104002.50;5251917;28;20664;-68
2022/01/13 09:36:55;;;;;;;103.05;26.13;;;;;;;1.87;100.00;104004.28;5251465;28;20425;-68
2022/01/13 09:39:27;;;;;;;87.50;22.38;;;;;;;1.91;100.00;104006.94;5252142;28;20024;-68
2022/01/13 09:41:59;;;;;;;88.28;24.25;;;;;;;1.93;100.00;104009.59;5251301;28;20410;-68
2022/01/13 09:44:30;;;;;;;107.95;24.23;;;;;;;1.91;100.00;104001.69;5254077;28;20190;-68
2022/01/13 09:47:04;;;;;;;96.65;24.52;;;;;;;1.90;100.00;104002.56;5251481;28;20036;-69
2022/01/13 09:49:35;;;;;;;94.85;24.60;;;;;;;1.94;100.00;104003.50;5252791;28;20028;-68
2022/01/13 09:52:06;;;;;;;86.70;23.38;;;;;;;1.99;100.00;103993.00;5253897;28;20040;-68
2022/01/13 09:54:37;;;;;;;130.63;27.02;;;;;;;1.94;100.00;103998.22;5252468;28;20033;-68
2022/01/13 09:57:09;;;;;;;135.88;26.45;;;;;;;1.95;100.00;104002.59;5253118;28;20033;-68
2022/01/13 09:59:40;;;;;;;108.28;25.80;;;;;;;2.03;100.00;104007.97;5247599;28;20119;-68
2022/01/13 10:02:12;;;;;;;102.97;24.52;;;;;;;2.03;100.00;104003.56;5248446;28;20036;-68
2022/01/13 10:04:49;;;;;;;147.02;26.05;;;;;;;1.99;100.00;104004.41;5245797;28;20041;-68
2022/01/13 10:07:37;;;;;;;101.57;23.75;;;;;;;2.09;100.00;104000.09;5251146;28;20029;-68
2022/01/13 10:10:14;;;;;;;121.45;23.55;;;;;;;2.11;100.00;103998.38;5251400;28;20049;-68
2022/01/13 10:12:58;;;;;;;136.70;24.00;;;;;;;2.04;100.00;104001.84;5250552;28;20162;-68
2022/01/13 10:18:37;;;;;;;84.15;21.38;;;;;;;2.17;100.00;104003.72;5257473;28;20525;-68
2022/01/13 10:21:20;;;;;;;114.75;23.85;;;;;;;2.18;100.00;104002.84;5251861;28;20033;-68
2022/01/13 10:24:11;;;;;;;111.80;24.02;;;;;;;2.21;100.00;104002.00;5252937;28;20036;-68
2022/01/13 10:26:58;;;;;;;109.38;23.00;;;;;;;2.24;100.00;104009.91;5250103;28;20036;-68
2022/01/13 10:29:41;;;;;;;75.68;21.50;;;;;;;2.25;100.00;103996.78;5250812;28;20036;-69
2022/01/13 10:32:16;;;;;;;94.32;23.58;;;;;;;2.19;100.00;104001.06;5252189;28;20073;-69
2022/01/13 10:34:50;;;;;;;93.63;23.63;;;;;;;2.27;100.00;104010.84;5251388;28;20108;-69
2022/01/13 10:37:33;;;;;;;70.32;21.08;;;;;;;2.33;100.00;104012.66;5253069;28;20036;-69
2022/01/13 10:40:09;;;;;;;103.75;24.17;;;;;;;2.21;100.00;104012.53;5250886;28;20529;-69
2022/01/13 10:45:33;;;;;;;85.28;21.63;;;;;;;2.30;100.00;104002.97;5254492;28;20095;-68
2022/01/13 10:48:06;;;;;;;85.75;21.33;;;;;;;2.32;100.00;104002.97;5251087;28;20465;-68
2022/01/13 10:50:44;;;;;;;82.82;24.00;;;;;;;2.29;100.00;104010.84;5248016;28;20087;-68
2022/01/13 10:53:23;;;;;;;80.20;21.75;;;;;;;2.41;100.00;104008.31;5250848;28;20048;-69
2022/01/13 10:56:06;;;;;;;79.45;21.98;;;;;;;2.40;100.00;104006.56;5250449;28;20427;-69
2022/01/13 10:58:49;;;;;;;76.03;21.30;;;;;;;2.38;100.00;104008.31;5251079;28;20048;-69
2022/01/13 11:01:20;;;;;;;90.70;21.17;;;;;;;2.25;100.00;103995.91;5248505;28;20033;-69
2022/01/13 11:03:54;;;;;;;77.40;22.20;;;;;;;2.33;100.00;103991.56;5251339;28;20036;-69
2022/01/13 11:06:29;;;;;;;97.07;23.48;;;;;;;2.27;100.00;103983.63;5248858;28;20061;-69
2022/01/13 11:09:00;;;;;;;69.00;21.02;;;;;;;2.35;100.00;103987.19;5250178;28;20199;-69
2022/01/13 11:11:35;;;;;;;66.20;19.77;;;;;;;2.37;100.00;103985.44;5248184;28;20340;-69
2022/01/13 11:14:24;;;;;;;59.85;20.50;;;;;;;2.42;100.00;103975.84;5249797;28;20040;-69
2022/01/13 11:16:55;;;;;;;74.30;21.40;;;;;;;2.50;100.00;103975.91;5249442;28;20025;-69
2022/01/13 11:19:27;;;;;;;94.53;22.20;;;;;;;2.46;100.00;103980.25;5252889;28;20052;-69
2022/01/13 11:21:58;;;;;;;67.18;20.45;;;;;;;2.49;100.00;103969.75;5251309;28;20021;-69
2022/01/13 11:24:29;;;;;;;66.13;19.90;;;;;;;2.53;100.00;103968.91;5248749;28;20479;-69
2022/01/13 11:27:02;;;;;;;73.82;20.40;;;;;;;2.54;100.00;103960.13;5250205;28;20075;-69
2022/01/13 11:29:34;;;;;;;58.00;20.58;;;;;;;2.56;100.00;103957.50;5244947;28;20126;-69
2022/01/13 11:32:07;;;;;;;77.40;21.48;;;;;;;2.52;100.00;103961.84;5246123;28;20029;-69
2022/01/13 11:34:38;;;;;;;60.75;20.38;;;;;;;2.61;100.00;103957.50;5250547;28;20033;-69
2022/01/13 11:37:10;;;;;;;66.35;21.00;;;;;;;2.69;100.00;103955.84;5251259;28;20037;-69
2022/01/13 11:39:43;;;;;;;62.70;18.70;;;;;;;2.64;100.00;103953.16;5251131;28;20028;-68
2022/01/13 11:42:15;;;;;;;63.65;20.48;;;;;;;2.62;100.00;103956.66;5250014;28;20025;-69
2022/01/13 11:45:12;;;;;;;65.63;19.50;;;;;;;2.72;100.00;103962.03;5250577;28;20028;-68
2022/01/13 11:47:43;;;;;;;61.67;19.80;;;;;;;2.64;100.00;103960.19;5250812;28;20048;-68
2022/01/13 11:50:23;;;;;;;56.50;19.52;;;;;;;2.75;100.00;103966.41;5250725;28;20029;-68
2022/01/13 11:52:54;;;;;;;63.60;20.35;;;;;;;2.73;100.00;103970.81;5250000;28;20135;-69
2022/01/13 11:55:28;;;;;;;62.58;20.25;;;;;;;2.68;100.00;103962.84;5252387;28;20468;-69
2022/01/13 11:58:12;;;;;;;63.75;20.27;;;;;;;2.72;100.00;103962.03;5247907;28;20033;-69
2022/01/13 12:00:46;;;;;;;61.63;18.98;;;;;;;2.62;100.00;103961.94;5251299;28;20095;-69
2022/01/13 12:03:32;;;;;;;59.05;20.40;;;;;;;2.73;100.00;103950.59;5247784;28;20036;-69